Radford, Virginia
Current Conditions -  °F | °C
As of 2:35 PM on Tuesday 21 Oct 2014 (Local Time) from KPSK Reporting Station
Broken Clouds Broken Clouds  
Wind Chill: 58°   Ceiling: 6000
Heat Index: 58°   Visibility: 10mi
Dew Point: 43°   Wind: 14mph
Humidity: 56%   Direction: 290°WNW
Pressure: 29.92"   Gusts: 23mph
Location:  37.12°N, 80.59°W
Report Text: KPSK 211835Z AUTO 29012G20KT 10SM BKN060 15/06 A2992 RMK AO2 T01460060
Loading
Personal Weather Stations






























Interactive Weather Map
Tropical Storm Tracking
New forecast layout! Learn more

10-Day Weather Forecast

Advertisements
Track Severe Weather on mobile